sensor_id;sensor_type;location;lat;lon;timestamp;temperature;humidity
4548;DHT22;2286;51.570;7.090;2022-11-13T00:00:50;6.80;90.90
4548;DHT22;2286;51.570;7.090;2022-11-13T00:03:17;6.80;76.30
4548;DHT22;2286;51.570;7.090;2022-11-13T00:05:46;6.80;74.20
4548;DHT22;2286;51.570;7.090;2022-11-13T00:08:13;6.70;21.90
4548;DHT22;2286;51.570;7.090;2022-11-13T00:10:40;6.70;16.40
4548;DHT22;2286;51.570;7.090;2022-11-13T00:13:07;6.70;11.90
4548;DHT22;2286;51.570;7.090;2022-11-13T00:15:34;6.70;1.30
4548;DHT22;2286;51.570;7.090;2022-11-13T00:18:01;6.70;29.30
4548;DHT22;2286;51.570;7.090;2022-11-13T00:20:29;6.60;1.00
4548;DHT22;2286;51.570;7.090;2022-11-13T00:22:57;6.60;1.00
4548;DHT22;2286;51.570;7.090;2022-11-13T00:25:24;6.50;12.50
4548;DHT22;2286;51.570;7.090;2022-11-13T00:27:51;6.50;22.50
4548;DHT22;2286;51.570;7.090;2022-11-13T00:30:18;6.50;33.60
4548;DHT22;2286;51.570;7.090;2022-11-13T00:32:45;6.40;12.50
4548;DHT22;2286;51.570;7.090;2022-11-13T00:35:12;6.40;25.00
4548;DHT22;2286;51.570;7.090;2022-11-13T00:37:39;6.40;21.60
4548;DHT22;2286;51.570;7.090;2022-11-13T00:40:09;6.40;57.60
4548;DHT22;2286;51.570;7.090;2022-11-13T00:42:36;6.40;86.80
4548;DHT22;2286;51.570;7.090;2022-11-13T00:45:03;6.30;78.90
4548;DHT22;2286;51.570;7.090;2022-11-13T00:47:33;6.30;67.70
4548;DHT22;2286;51.570;7.090;2022-11-13T00:50:00;6.30;64.80
4548;DHT22;2286;51.570;7.090;2022-11-13T00:52:28;6.30;92.10
4548;DHT22;2286;51.570;7.090;2022-11-13T00:54:55;6.30;99.90
4548;DHT22;2286;51.570;7.090;2022-11-13T00:57:23;6.30;99.90
4548;DHT22;2286;51.570;7.090;2022-11-13T00:59:50;6.30;99.90
4548;DHT22;2286;51.570;7.090;2022-11-13T01:02:17;6.30;99.90
4548;DHT22;2286;51.570;7.090;2022-11-13T01:04:44;6.30;99.90
4548;DHT22;2286;51.570;7.090;2022-11-13T01:07:11;6.20;99.90
4548;DHT22;2286;51.570;7.090;2022-11-13T01:09:38;6.30;99.90
4548;DHT22;2286;51.570;7.090;2022-11-13T01:12:05;6.30;99.90
4548;DHT22;2286;51.570;7.090;2022-11-13T01:14:34;6.30;99.90
4548;DHT22;2286;51.570;7.090;2022-11-13T01:17:01;6.30;99.90
4548;DHT22;2286;51.570;7.090;2022-11-13T01:19:28;6.30;90.60
4548;DHT22;2286;51.570;7.090;2022-11-13T01:21:55;6.30;87.30
4548;DHT22;2286;51.570;7.090;2022-11-13T01:24:22;6.30;71.50
4548;DHT22;2286;51.570;7.090;2022-11-13T01:26:49;6.30;44.40
4548;DHT22;2286;51.570;7.090;2022-11-13T01:29:16;6.30;22.50
4548;DHT22;2286;51.570;7.090;2022-11-13T01:31:44;6.30;12.40
4548;DHT22;2286;51.570;7.090;2022-11-13T01:34:11;6.30;1.00
4548;DHT22;2286;51.570;7.090;2022-11-13T01:36:38;6.30;1.00
4548;DHT22;2286;51.570;7.090;2022-11-13T01:39:05;6.30;1.00
4548;DHT22;2286;51.570;7.090;2022-11-13T01:41:33;6.40;1.00
4548;DHT22;2286;51.570;7.090;2022-11-13T01:44:00;6.40;1.00
4548;DHT22;2286;51.570;7.090;2022-11-13T01:46:29;6.40;1.00
4548;DHT22;2286;51.570;7.090;2022-11-13T01:49:02;6.40;1.00
4548;DHT22;2286;51.570;7.090;2022-11-13T01:51:33;6.40;1.00
4548;DHT22;2286;51.570;7.090;2022-11-13T01:54:02;6.40;1.00
4548;DHT22;2286;51.570;7.090;2022-11-13T01:56:30;6.40;1.00
4548;DHT22;2286;51.570;7.090;2022-11-13T01:59:01;6.50;1.00
4548;DHT22;2286;51.570;7.090;2022-11-13T02:01:30;6.50;1.00
4548;DHT22;2286;51.570;7.090;2022-11-13T02:03:59;6.50;1.00
4548;DHT22;2286;51.570;7.090;2022-11-13T02:06:29;6.50;1.00
4548;DHT22;2286;51.570;7.090;2022-11-13T02:08:58;6.50;1.00
4548;DHT22;2286;51.570;7.090;2022-11-13T02:11:26;6.40;1.00
4548;DHT22;2286;51.570;7.090;2022-11-13T02:13:53;6.40;1.00
4548;DHT22;2286;51.570;7.090;2022-11-13T02:16:21;6.50;1.00
4548;DHT22;2286;51.570;7.090;2022-11-13T02:18:49;6.50;1.00
4548;DHT22;2286;51.570;7.090;2022-11-13T02:21:31;6.40;99.90
4548;DHT22;2286;51.570;7.090;2022-11-13T02:24:15;6.40;99.90
4548;DHT22;2286;51.570;7.090;2022-11-13T02:26:45;6.50;99.90
4548;DHT22;2286;51.570;7.090;2022-11-13T02:29:12;6.40;99.90
4548;DHT22;2286;51.570;7.090;2022-11-13T02:31:39;6.40;99.90
4548;DHT22;2286;51.570;7.090;2022-11-13T02:34:06;6.40;1.00
4548;DHT22;2286;51.570;7.090;2022-11-13T02:36:33;6.30;1.00
4548;DHT22;2286;51.570;7.090;2022-11-13T02:39:05;6.30;1.00
4548;DHT22;2286;51.570;7.090;2022-11-13T02:41:34;6.20;1.00
4548;DHT22;2286;51.570;7.090;2022-11-13T02:44:03;6.20;1.00
4548;DHT22;2286;51.570;7.090;2022-11-13T02:46:30;6.20;1.00
4548;DHT22;2286;51.570;7.090;2022-11-13T02:48:57;6.20;1.00
4548;DHT22;2286;51.570;7.090;2022-11-13T02:51:25;6.20;1.00
4548;DHT22;2286;51.570;7.090;2022-11-13T02:53:52;6.20;1.00
4548;DHT22;2286;51.570;7.090;2022-11-13T02:56:19;6.10;1.00
4548;DHT22;2286;51.570;7.090;2022-11-13T02:58:47;6.10;1.00
4548;DHT22;2286;51.570;7.090;2022-11-13T03:01:14;6.10;1.00
4548;DHT22;2286;51.570;7.090;2022-11-13T03:03:41;6.10;1.00
4548;DHT22;2286;51.570;7.090;2022-11-13T03:06:08;6.10;1.00
4548;DHT22;2286;51.570;7.090;2022-11-13T03:08:35;6.00;1.00
4548;DHT22;2286;51.570;7.090;2022-11-13T03:11:06;5.90;1.00
4548;DHT22;2286;51.570;7.090;2022-11-13T03:13:34;5.90;1.00
4548;DHT22;2286;51.570;7.090;2022-11-13T03:16:11;6.00;1.00
4548;DHT22;2286;51.570;7.090;2022-11-13T03:18:38;5.90;1.00
4548;DHT22;2286;51.570;7.090;2022-11-13T03:21:07;5.80;1.00
4548;DHT22;2286;51.570;7.090;2022-11-13T03:23:34;5.80;1.00
4548;DHT22;2286;51.570;7.090;2022-11-13T03:26:03;5.70;1.00
4548;DHT22;2286;51.570;7.090;2022-11-13T03:28:30;5.70;1.00
4548;DHT22;2286;51.570;7.090;2022-11-13T03:30:57;5.60;1.00
4548;DHT22;2286;51.570;7.090;2022-11-13T03:33:25;5.60;1.00
4548;DHT22;2286;51.570;7.090;2022-11-13T03:35:52;5.50;1.00
4548;DHT22;2286;51.570;7.090;2022-11-13T03:38:19;5.40;1.00
4548;DHT22;2286;51.570;7.090;2022-11-13T03:40:46;5.50;1.00
4548;DHT22;2286;51.570;7.090;2022-11-13T03:43:13;5.40;1.00
4548;DHT22;2286;51.570;7.090;2022-11-13T03:45:40;5.40;1.00
4548;DHT22;2286;51.570;7.090;2022-11-13T03:48:07;5.30;1.00
4548;DHT22;2286;51.570;7.090;2022-11-13T03:50:35;5.30;2.20
4548;DHT22;2286;51.570;7.090;2022-11-13T03:53:02;5.20;15.70
4548;DHT22;2286;51.570;7.090;2022-11-13T03:55:29;5.20;44.50
4548;DHT22;2286;51.570;7.090;2022-11-13T03:57:56;5.20;57.80
4548;DHT22;2286;51.570;7.090;2022-11-13T04:00:24;5.10;60.00
4548;DHT22;2286;51.570;7.090;2022-11-13T04:02:51;5.10;99.90
4548;DHT22;2286;51.570;7.090;2022-11-13T04:05:18;5.10;99.90
4548;DHT22;2286;51.570;7.090;2022-11-13T04:07:46;5.00;99.90
4548;DHT22;2286;51.570;7.090;2022-11-13T04:10:13;5.00;99.90
4548;DHT22;2286;51.570;7.090;2022-11-13T04:12:40;4.90;99.90
4548;DHT22;2286;51.570;7.090;2022-11-13T04:15:07;4.90;99.90
4548;DHT22;2286;51.570;7.090;2022-11-13T04:17:34;4.90;99.90
4548;DHT22;2286;51.570;7.090;2022-11-13T04:20:01;5.00;99.90
4548;DHT22;2286;51.570;7.090;2022-11-13T04:22:28;4.90;99.90
4548;DHT22;2286;51.570;7.090;2022-11-13T04:24:56;4.90;99.90
4548;DHT22;2286;51.570;7.090;2022-11-13T04:27:23;4.90;99.90
4548;DHT22;2286;51.570;7.090;2022-11-13T04:29:49;4.80;99.90
4548;DHT22;2286;51.570;7.090;2022-11-13T04:32:16;4.80;99.90
4548;DHT22;2286;51.570;7.090;2022-11-13T04:34:43;4.80;99.90
4548;DHT22;2286;51.570;7.090;2022-11-13T04:37:10;4.80;99.90
4548;DHT22;2286;51.570;7.090;2022-11-13T04:39:37;4.80;99.90
4548;DHT22;2286;51.570;7.090;2022-11-13T04:42:05;4.70;99.90
4548;DHT22;2286;51.570;7.090;2022-11-13T04:44:49;4.60;99.90
4548;DHT22;2286;51.570;7.090;2022-11-13T04:47:16;4.70;99.90
4548;DHT22;2286;51.570;7.090;2022-11-13T04:49:42;4.60;99.90
4548;DHT22;2286;51.570;7.090;2022-11-13T04:52:09;4.60;99.90
4548;DHT22;2286;51.570;7.090;2022-11-13T04:54:37;4.60;99.90
4548;DHT22;2286;51.570;7.090;2022-11-13T04:57:05;4.60;99.90
4548;DHT22;2286;51.570;7.090;2022-11-13T04:59:32;4.60;99.90
4548;DHT22;2286;51.570;7.090;2022-11-13T05:01:59;4.60;99.90
4548;DHT22;2286;51.570;7.090;2022-11-13T05:04:26;4.60;99.90
4548;DHT22;2286;51.570;7.090;2022-11-13T05:06:52;4.60;99.90
4548;DHT22;2286;51.570;7.090;2022-11-13T05:09:19;4.60;99.90
4548;DHT22;2286;51.570;7.090;2022-11-13T05:11:46;4.60;99.90
4548;DHT22;2286;51.570;7.090;2022-11-13T05:14:14;4.50;99.90
4548;DHT22;2286;51.570;7.090;2022-11-13T05:16:41;4.50;99.90
4548;DHT22;2286;51.570;7.090;2022-11-13T05:19:08;4.50;99.90
4548;DHT22;2286;51.570;7.090;2022-11-13T05:21:35;4.40;99.90
4548;DHT22;2286;51.570;7.090;2022-11-13T05:24:03;4.50;99.90
4548;DHT22;2286;51.570;7.090;2022-11-13T05:26:30;4.50;99.90
4548;DHT22;2286;51.570;7.090;2022-11-13T05:28:58;4.40;99.90
4548;DHT22;2286;51.570;7.090;2022-11-13T05:31:26;4.40;99.90
4548;DHT22;2286;51.570;7.090;2022-11-13T05:33:53;4.40;99.90
4548;DHT22;2286;51.570;7.090;2022-11-13T05:36:21;4.40;99.90
4548;DHT22;2286;51.570;7.090;2022-11-13T05:38:48;4.30;99.90
4548;DHT22;2286;51.570;7.090;2022-11-13T05:41:17;4.30;99.90
4548;DHT22;2286;51.570;7.090;2022-11-13T05:43:45;4.20;99.90
4548;DHT22;2286;51.570;7.090;2022-11-13T05:46:13;4.20;99.90
4548;DHT22;2286;51.570;7.090;2022-11-13T05:48:42;4.20;99.90
4548;DHT22;2286;51.570;7.090;2022-11-13T05:51:11;4.20;99.90
4548;DHT22;2286;51.570;7.090;2022-11-13T05:53:38;4.20;99.90
4548;DHT22;2286;51.570;7.090;2022-11-13T05:56:07;4.20;99.90
4548;DHT22;2286;51.570;7.090;2022-11-13T05:58:35;4.10;99.90
4548;DHT22;2286;51.570;7.090;2022-11-13T06:01:08;4.10;99.90
4548;DHT22;2286;51.570;7.090;2022-11-13T06:03:35;4.10;99.90
4548;DHT22;2286;51.570;7.090;2022-11-13T06:06:05;4.10;99.90
4548;DHT22;2286;51.570;7.090;2022-11-13T06:08:32;4.10;99.90
4548;DHT22;2286;51.570;7.090;2022-11-13T06:10:59;4.00;99.90
4548;DHT22;2286;51.570;7.090;2022-11-13T06:13:27;4.00;99.90
4548;DHT22;2286;51.570;7.090;2022-11-13T06:15:58;4.00;99.90
4548;DHT22;2286;51.570;7.090;2022-11-13T06:18:25;4.00;99.90
4548;DHT22;2286;51.570;7.090;2022-11-13T06:20:52;3.90;99.90
4548;DHT22;2286;51.570;7.090;2022-11-13T06:23:20;3.90;99.90
4548;DHT22;2286;51.570;7.090;2022-11-13T06:25:47;3.90;99.90
4548;DHT22;2286;51.570;7.090;2022-11-13T06:28:13;3.90;99.90
4548;DHT22;2286;51.570;7.090;2022-11-13T06:30:40;3.90;99.90
4548;DHT22;2286;51.570;7.090;2022-11-13T06:33:07;3.90;99.90
4548;DHT22;2286;51.570;7.090;2022-11-13T06:35:34;3.90;99.90
4548;DHT22;2286;51.570;7.090;2022-11-13T06:38:00;3.90;99.90
4548;DHT22;2286;51.570;7.090;2022-11-13T06:40:29;3.90;99.90
4548;DHT22;2286;51.570;7.090;2022-11-13T06:42:55;3.90;99.90
4548;DHT22;2286;51.570;7.090;2022-11-13T06:45:22;3.90;99.90
4548;DHT22;2286;51.570;7.090;2022-11-13T06:47:49;3.80;99.90
4548;DHT22;2286;51.570;7.090;2022-11-13T06:50:16;3.90;99.90
4548;DHT22;2286;51.570;7.090;2022-11-13T06:52:42;3.80;99.90
4548;DHT22;2286;51.570;7.090;2022-11-13T06:55:09;3.80;99.90
4548;DHT22;2286;51.570;7.090;2022-11-13T06:57:37;3.80;99.90
4548;DHT22;2286;51.570;7.090;2022-11-13T07:00:05;3.80;99.90
4548;DHT22;2286;51.570;7.090;2022-11-13T07:02:32;3.80;99.90
4548;DHT22;2286;51.570;7.090;2022-11-13T07:04:59;3.80;99.90
4548;DHT22;2286;51.570;7.090;2022-11-13T07:07:26;3.90;99.90
4548;DHT22;2286;51.570;7.090;2022-11-13T07:09:52;3.80;99.90
4548;DHT22;2286;51.570;7.090;2022-11-13T07:12:19;3.80;99.90
4548;DHT22;2286;51.570;7.090;2022-11-13T07:14:47;3.90;99.90
4548;DHT22;2286;51.570;7.090;2022-11-13T07:17:14;3.90;99.90
4548;DHT22;2286;51.570;7.090;2022-11-13T07:19:41;3.90;99.90
4548;DHT22;2286;51.570;7.090;2022-11-13T07:22:08;3.90;99.90
4548;DHT22;2286;51.570;7.090;2022-11-13T07:24:34;4.00;99.90
4548;DHT22;2286;51.570;7.090;2022-11-13T07:27:01;4.00;99.90
4548;DHT22;2286;51.570;7.090;2022-11-13T07:29:28;4.00;99.90
4548;DHT22;2286;51.570;7.090;2022-11-13T07:31:56;4.00;99.90
4548;DHT22;2286;51.570;7.090;2022-11-13T07:34:23;4.00;99.90
4548;DHT22;2286;51.570;7.090;2022-11-13T07:36:49;4.00;99.90
4548;DHT22;2286;51.570;7.090;2022-11-13T07:39:16;4.10;99.90
4548;DHT22;2286;51.570;7.090;2022-11-13T07:41:43;4.10;99.90
4548;DHT22;2286;51.570;7.090;2022-11-13T07:44:10;4.20;99.90
4548;DHT22;2286;51.570;7.090;2022-11-13T07:46:37;4.20;99.90
4548;DHT22;2286;51.570;7.090;2022-11-13T07:49:05;4.30;99.90
4548;DHT22;2286;51.570;7.090;2022-11-13T07:51:32;4.30;99.90
4548;DHT22;2286;51.570;7.090;2022-11-13T07:53:58;4.30;99.90
4548;DHT22;2286;51.570;7.090;2022-11-13T07:56:25;4.40;99.90
4548;DHT22;2286;51.570;7.090;2022-11-13T07:58:52;4.40;99.90
4548;DHT22;2286;51.570;7.090;2022-11-13T08:01:19;4.50;99.90
4548;DHT22;2286;51.570;7.090;2022-11-13T08:03:45;4.50;99.90
4548;DHT22;2286;51.570;7.090;2022-11-13T08:06:14;4.50;99.90
4548;DHT22;2286;51.570;7.090;2022-11-13T08:08:40;4.50;99.90
4548;DHT22;2286;51.570;7.090;2022-11-13T08:11:08;4.60;99.90
4548;DHT22;2286;51.570;7.090;2022-11-13T08:13:35;4.60;99.90
4548;DHT22;2286;51.570;7.090;2022-11-13T08:16:03;4.70;99.90
4548;DHT22;2286;51.570;7.090;2022-11-13T08:18:30;4.70;99.90
4548;DHT22;2286;51.570;7.090;2022-11-13T08:21:00;4.70;99.90
4548;DHT22;2286;51.570;7.090;2022-11-13T08:23:29;4.70;99.90
4548;DHT22;2286;51.570;7.090;2022-11-13T08:25:56;4.80;99.90
4548;DHT22;2286;51.570;7.090;2022-11-13T08:28:23;4.90;99.90
4548;DHT22;2286;51.570;7.090;2022-11-13T08:30:50;5.00;99.90
4548;DHT22;2286;51.570;7.090;2022-11-13T08:33:16;5.00;99.90
4548;DHT22;2286;51.570;7.090;2022-11-13T08:35:51;5.10;99.90
4548;DHT22;2286;51.570;7.090;2022-11-13T08:38:18;5.10;99.90
4548;DHT22;2286;51.570;7.090;2022-11-13T08:40:47;5.20;99.90
4548;DHT22;2286;51.570;7.090;2022-11-13T08:43:14;5.20;99.90
4548;DHT22;2286;51.570;7.090;2022-11-13T08:45:41;5.30;99.90
4548;DHT22;2286;51.570;7.090;2022-11-13T08:48:08;5.40;99.90
4548;DHT22;2286;51.570;7.090;2022-11-13T08:50:35;5.40;99.90
4548;DHT22;2286;51.570;7.090;2022-11-13T08:53:02;5.50;99.90
4548;DHT22;2286;51.570;7.090;2022-11-13T08:55:31;5.50;80.30
4548;DHT22;2286;51.570;7.090;2022-11-13T08:57:59;5.60;43.10
4548;DHT22;2286;51.570;7.090;2022-11-13T09:00:27;5.70;9.40
4548;DHT22;2286;51.570;7.090;2022-11-13T09:02:54;5.70;1.00
4548;DHT22;2286;51.570;7.090;2022-11-13T09:05:23;5.80;1.00
4548;DHT22;2286;51.570;7.090;2022-11-13T09:07:49;5.90;1.00
4548;DHT22;2286;51.570;7.090;2022-11-13T09:10:17;6.00;1.00
4548;DHT22;2286;51.570;7.090;2022-11-13T09:12:44;6.20;1.00
4548;DHT22;2286;51.570;7.090;2022-11-13T09:15:12;6.30;99.90
4548;DHT22;2286;51.570;7.090;2022-11-13T09:17:39;6.50;99.90
4548;DHT22;2286;51.570;7.090;2022-11-13T09:20:06;6.60;1.00
4548;DHT22;2286;51.570;7.090;2022-11-13T09:22:33;6.70;99.90
4548;DHT22;2286;51.570;7.090;2022-11-13T09:25:00;6.80;99.90
4548;DHT22;2286;51.570;7.090;2022-11-13T09:27:27;6.80;1.00
4548;DHT22;2286;51.570;7.090;2022-11-13T09:29:54;6.90;55.60
4548;DHT22;2286;51.570;7.090;2022-11-13T09:32:22;7.00;1.00
4548;DHT22;2286;51.570;7.090;2022-11-13T09:34:49;7.00;99.90
4548;DHT22;2286;51.570;7.090;2022-11-13T09:37:16;7.10;1.00
4548;DHT22;2286;51.570;7.090;2022-11-13T09:39:43;7.10;99.90
4548;DHT22;2286;51.570;7.090;2022-11-13T09:42:14;7.20;49.80
4548;DHT22;2286;51.570;7.090;2022-11-13T09:44:45;7.30;1.00
4548;DHT22;2286;51.570;7.090;2022-11-13T09:47:17;7.40;1.00
4548;DHT22;2286;51.570;7.090;2022-11-13T09:49:49;7.50;1.00
4548;DHT22;2286;51.570;7.090;2022-11-13T09:52:20;7.60;1.00
4548;DHT22;2286;51.570;7.090;2022-11-13T09:54:49;7.80;1.00
4548;DHT22;2286;51.570;7.090;2022-11-13T09:57:25;8.00;1.00
4548;DHT22;2286;51.570;7.090;2022-11-13T09:59:59;8.40;1.00
4548;DHT22;2286;51.570;7.090;2022-11-13T10:02:37;8.70;3.70
4548;DHT22;2286;51.570;7.090;2022-11-13T10:05:13;8.80;1.00
4548;DHT22;2286;51.570;7.090;2022-11-13T10:07:56;8.90;99.90
4548;DHT22;2286;51.570;7.090;2022-11-13T10:10:47;9.00;1.00
4548;DHT22;2286;51.570;7.090;2022-11-13T10:13:17;9.20;1.00
4548;DHT22;2286;51.570;7.090;2022-11-13T10:15:49;9.70;1.00
4548;DHT22;2286;51.570;7.090;2022-11-13T10:18:20;10.70;99.90
4548;DHT22;2286;51.570;7.090;2022-11-13T10:20:51;12.30;1.00
4548;DHT22;2286;51.570;7.090;2022-11-13T10:23:21;13.90;33.00
4548;DHT22;2286;51.570;7.090;2022-11-13T10:25:50;15.20;99.90
4548;DHT22;2286;51.570;7.090;2022-11-13T10:28:20;16.40;99.90
4548;DHT22;2286;51.570;7.090;2022-11-13T10:30:48;17.50;99.90
4548;DHT22;2286;51.570;7.090;2022-11-13T10:33:17;18.40;99.90
4548;DHT22;2286;51.570;7.090;2022-11-13T10:35:51;18.90;99.90
4548;DHT22;2286;51.570;7.090;2022-11-13T10:38:24;19.70;99.90
4548;DHT22;2286;51.570;7.090;2022-11-13T10:41:03;20.40;99.90
4548;DHT22;2286;51.570;7.090;2022-11-13T10:43:31;20.90;99.90
4548;DHT22;2286;51.570;7.090;2022-11-13T10:45:59;21.50;99.90
4548;DHT22;2286;51.570;7.090;2022-11-13T10:48:28;21.80;99.90
4548;DHT22;2286;51.570;7.090;2022-11-13T10:50:59;21.70;99.90
4548;DHT22;2286;51.570;7.090;2022-11-13T10:53:35;22.20;99.90
4548;DHT22;2286;51.570;7.090;2022-11-13T10:56:12;22.70;99.90
4548;DHT22;2286;51.570;7.090;2022-11-13T10:58:40;23.10;99.90
4548;DHT22;2286;51.570;7.090;2022-11-13T11:01:13;23.50;99.90
4548;DHT22;2286;51.570;7.090;2022-11-13T11:03:47;23.80;99.90
4548;DHT22;2286;51.570;7.090;2022-11-13T11:06:16;23.90;99.90
4548;DHT22;2286;51.570;7.090;2022-11-13T11:08:43;24.40;99.90
4548;DHT22;2286;51.570;7.090;2022-11-13T11:11:14;25.00;99.90
4548;DHT22;2286;51.570;7.090;2022-11-13T11:14:16;25.80;99.90
4548;DHT22;2286;51.570;7.090;2022-11-13T11:16:44;26.00;99.90
4548;DHT22;2286;51.570;7.090;2022-11-13T11:19:12;26.30;99.90
4548;DHT22;2286;51.570;7.090;2022-11-13T11:21:42;26.30;99.90
4548;DHT22;2286;51.570;7.090;2022-11-13T11:24:15;26.50;99.90
4548;DHT22;2286;51.570;7.090;2022-11-13T11:26:48;26.70;99.90
4548;DHT22;2286;51.570;7.090;2022-11-13T11:29:20;26.80;99.90
4548;DHT22;2286;51.570;7.090;2022-11-13T11:31:54;26.90;99.90
4548;DHT22;2286;51.570;7.090;2022-11-13T11:34:27;27.00;99.90
4548;DHT22;2286;51.570;7.090;2022-11-13T11:37:06;27.20;99.90
4548;DHT22;2286;51.570;7.090;2022-11-13T11:39:41;27.10;99.90
4548;DHT22;2286;51.570;7.090;2022-11-13T11:42:20;27.60;99.90
4548;DHT22;2286;51.570;7.090;2022-11-13T11:44:58;27.90;99.90
4548;DHT22;2286;51.570;7.090;2022-11-13T11:47:27;28.40;99.90
4548;DHT22;2286;51.570;7.090;2022-11-13T11:49:54;28.50;99.90
4548;DHT22;2286;51.570;7.090;2022-11-13T11:52:41;28.50;99.90
4548;DHT22;2286;51.570;7.090;2022-11-13T11:58:14;29.00;99.90
4548;DHT22;2286;51.570;7.090;2022-11-13T12:00:47;29.40;99.90
4548;DHT22;2286;51.570;7.090;2022-11-13T12:03:48;29.90;99.90
4548;DHT22;2286;51.570;7.090;2022-11-13T12:06:25;29.90;99.90
4548;DHT22;2286;51.570;7.090;2022-11-13T12:09:01;30.00;99.90
4548;DHT22;2286;51.570;7.090;2022-11-13T12:11:30;29.90;99.90
4548;DHT22;2286;51.570;7.090;2022-11-13T12:14:07;30.50;99.90
4548;DHT22;2286;51.570;7.090;2022-11-13T12:16:42;30.50;99.90
4548;DHT22;2286;51.570;7.090;2022-11-13T12:19:18;30.10;99.90
4548;DHT22;2286;51.570;7.090;2022-11-13T12:21:55;30.40;99.90
4548;DHT22;2286;51.570;7.090;2022-11-13T12:24:43;30.10;99.90
4548;DHT22;2286;51.570;7.090;2022-11-13T12:27:20;30.20;99.90
4548;DHT22;2286;51.570;7.090;2022-11-13T12:30:00;30.20;99.90
4548;DHT22;2286;51.570;7.090;2022-11-13T12:33:04;30.10;99.90
4548;DHT22;2286;51.570;7.090;2022-11-13T12:35:32;30.80;99.90
4548;DHT22;2286;51.570;7.090;2022-11-13T12:38:02;30.80;99.90
4548;DHT22;2286;51.570;7.090;2022-11-13T12:40:36;30.90;99.90
4548;DHT22;2286;51.570;7.090;2022-11-13T12:43:29;30.40;99.90
4548;DHT22;2286;51.570;7.090;2022-11-13T12:45:58;30.50;99.90
4548;DHT22;2286;51.570;7.090;2022-11-13T12:48:32;31.40;99.90
4548;DHT22;2286;51.570;7.090;2022-11-13T12:51:00;31.50;99.90
4548;DHT22;2286;51.570;7.090;2022-11-13T12:53:30;31.60;99.90
4548;DHT22;2286;51.570;7.090;2022-11-13T12:56:00;31.40;99.90
4548;DHT22;2286;51.570;7.090;2022-11-13T12:58:29;31.60;99.90
4548;DHT22;2286;51.570;7.090;2022-11-13T13:01:00;31.80;99.90
4548;DHT22;2286;51.570;7.090;2022-11-13T13:03:48;31.70;99.90
4548;DHT22;2286;51.570;7.090;2022-11-13T13:06:29;31.80;99.90
4548;DHT22;2286;51.570;7.090;2022-11-13T13:09:12;31.80;99.90
4548;DHT22;2286;51.570;7.090;2022-11-13T13:11:50;31.60;99.90
4548;DHT22;2286;51.570;7.090;2022-11-13T13:14:35;32.00;99.90
4548;DHT22;2286;51.570;7.090;2022-11-13T13:17:05;32.10;99.90
4548;DHT22;2286;51.570;7.090;2022-11-13T13:19:32;32.00;99.90
4548;DHT22;2286;51.570;7.090;2022-11-13T13:21:59;32.10;99.90
4548;DHT22;2286;51.570;7.090;2022-11-13T13:24:31;32.10;99.90
4548;DHT22;2286;51.570;7.090;2022-11-13T13:27:00;32.00;99.90
4548;DHT22;2286;51.570;7.090;2022-11-13T13:29:27;32.30;99.90
4548;DHT22;2286;51.570;7.090;2022-11-13T13:32:01;32.20;99.90
4548;DHT22;2286;51.570;7.090;2022-11-13T13:34:37;32.40;99.90
4548;DHT22;2286;51.570;7.090;2022-11-13T13:37:16;32.40;99.90
4548;DHT22;2286;51.570;7.090;2022-11-13T13:39:59;32.20;99.90
4548;DHT22;2286;51.570;7.090;2022-11-13T13:42:42;32.10;99.90
4548;DHT22;2286;51.570;7.090;2022-11-13T13:45:22;32.00;99.90
4548;DHT22;2286;51.570;7.090;2022-11-13T13:47:54;31.80;99.90
4548;DHT22;2286;51.570;7.090;2022-11-13T13:50:24;31.60;99.90
4548;DHT22;2286;51.570;7.090;2022-11-13T13:52:52;32.00;99.90
4548;DHT22;2286;51.570;7.090;2022-11-13T13:55:26;32.10;99.90
4548;DHT22;2286;51.570;7.090;2022-11-13T13:57:55;32.10;99.90
4548;DHT22;2286;51.570;7.090;2022-11-13T14:00:22;31.80;99.90
4548;DHT22;2286;51.570;7.090;2022-11-13T14:02:50;31.60;99.90
4548;DHT22;2286;51.570;7.090;2022-11-13T14:05:26;31.20;99.90
4548;DHT22;2286;51.570;7.090;2022-11-13T14:07:53;31.40;99.90
4548;DHT22;2286;51.570;7.090;2022-11-13T14:10:21;31.10;99.90
4548;DHT22;2286;51.570;7.090;2022-11-13T14:12:49;31.00;99.90
4548;DHT22;2286;51.570;7.090;2022-11-13T14:15:23;31.00;99.90
4548;DHT22;2286;51.570;7.090;2022-11-13T14:17:50;30.40;99.90
4548;DHT22;2286;51.570;7.090;2022-11-13T14:20:17;30.50;99.90
4548;DHT22;2286;51.570;7.090;2022-11-13T14:22:48;30.40;99.90
4548;DHT22;2286;51.570;7.090;2022-11-13T14:25:20;30.50;99.90
4548;DHT22;2286;51.570;7.090;2022-11-13T14:27:48;29.80;99.90
4548;DHT22;2286;51.570;7.090;2022-11-13T14:30:24;29.80;99.90
4548;DHT22;2286;51.570;7.090;2022-11-13T14:32:52;29.50;99.90
4548;DHT22;2286;51.570;7.090;2022-11-13T14:35:21;29.30;99.90
4548;DHT22;2286;51.570;7.090;2022-11-13T14:37:50;29.10;99.90
4548;DHT22;2286;51.570;7.090;2022-11-13T14:40:23;28.90;99.90
4548;DHT22;2286;51.570;7.090;2022-11-13T14:42:53;28.70;99.90
4548;DHT22;2286;51.570;7.090;2022-11-13T14:45:25;28.60;99.90
4548;DHT22;2286;51.570;7.090;2022-11-13T14:47:57;28.20;99.90
4548;DHT22;2286;51.570;7.090;2022-11-13T14:50:26;28.00;99.90
4548;DHT22;2286;51.570;7.090;2022-11-13T14:53:00;26.60;99.90
4548;DHT22;2286;51.570;7.090;2022-11-13T14:55:29;24.70;99.90
4548;DHT22;2286;51.570;7.090;2022-11-13T14:57:56;22.90;99.90
4548;DHT22;2286;51.570;7.090;2022-11-13T15:00:31;21.50;99.90
4548;DHT22;2286;51.570;7.090;2022-11-13T15:02:59;20.50;99.90
4548;DHT22;2286;51.570;7.090;2022-11-13T15:05:26;19.70;99.90
4548;DHT22;2286;51.570;7.090;2022-11-13T15:07:54;19.20;99.90
4548;DHT22;2286;51.570;7.090;2022-11-13T15:10:23;18.70;99.90
4548;DHT22;2286;51.570;7.090;2022-11-13T15:12:50;18.30;99.90
4548;DHT22;2286;51.570;7.090;2022-11-13T15:15:20;18.00;99.90
4548;DHT22;2286;51.570;7.090;2022-11-13T15:17:49;17.80;99.90
4548;DHT22;2286;51.570;7.090;2022-11-13T15:20:19;17.50;99.90
4548;DHT22;2286;51.570;7.090;2022-11-13T15:22:46;17.20;99.90
4548;DHT22;2286;51.570;7.090;2022-11-13T15:25:15;16.90;99.90
4548;DHT22;2286;51.570;7.090;2022-11-13T15:27:42;16.60;99.90
4548;DHT22;2286;51.570;7.090;2022-11-13T15:30:10;16.30;99.90
4548;DHT22;2286;51.570;7.090;2022-11-13T15:32:37;16.10;99.90
4548;DHT22;2286;51.570;7.090;2022-11-13T15:35:10;15.90;99.90
4548;DHT22;2286;51.570;7.090;2022-11-13T15:37:37;15.60;99.90
4548;DHT22;2286;51.570;7.090;2022-11-13T15:40:04;15.40;99.90
4548;DHT22;2286;51.570;7.090;2022-11-13T15:42:33;15.20;99.90
4548;DHT22;2286;51.570;7.090;2022-11-13T15:45:01;15.00;99.90
4548;DHT22;2286;51.570;7.090;2022-11-13T15:47:31;14.80;99.90
4548;DHT22;2286;51.570;7.090;2022-11-13T15:49:59;14.60;99.90
4548;DHT22;2286;51.570;7.090;2022-11-13T15:52:30;14.30;99.90
4548;DHT22;2286;51.570;7.090;2022-11-13T15:54:58;14.10;99.90
4548;DHT22;2286;51.570;7.090;2022-11-13T15:57:26;13.90;99.90
4548;DHT22;2286;51.570;7.090;2022-11-13T15:59:53;13.80;99.90
4548;DHT22;2286;51.570;7.090;2022-11-13T16:02:21;13.60;99.90
4548;DHT22;2286;51.570;7.090;2022-11-13T16:04:48;13.40;99.90
4548;DHT22;2286;51.570;7.090;2022-11-13T16:07:20;13.20;99.90
4548;DHT22;2286;51.570;7.090;2022-11-13T16:09:49;13.10;1.00
4548;DHT22;2286;51.570;7.090;2022-11-13T16:12:16;12.90;1.00
4548;DHT22;2286;51.570;7.090;2022-11-13T16:14:43;12.70;1.00
4548;DHT22;2286;51.570;7.090;2022-11-13T16:17:12;12.60;34.40
4548;DHT22;2286;51.570;7.090;2022-11-13T16:19:41;12.40;99.90
4548;DHT22;2286;51.570;7.090;2022-11-13T16:22:16;12.30;99.90
4548;DHT22;2286;51.570;7.090;2022-11-13T16:24:43;12.20;1.00
4548;DHT22;2286;51.570;7.090;2022-11-13T16:27:14;12.10;1.00
4548;DHT22;2286;51.570;7.090;2022-11-13T16:29:43;11.90;94.40
4548;DHT22;2286;51.570;7.090;2022-11-13T16:32:13;11.90;99.10